Tiempo atmosférico en la estación meteorológica de Andújar, Jaén (193 m.)

Fecha
DESCASC
Temp. máxima en grados centígrados (hora)
DESCASC
Temp. mínima en grados centígrados (hora)
DESCASC
Temp. media en grados centígrados
DESCASC
Racha de viento máxima en m/sg (hora)
DESCASC
Velocidad máxima media en intervalos de 10 minutos(hora)
DESCASC
Precipitaciones diarias en mm
DESCASC
Precipitaciones de 00:00 a 06:00 en mm
DESCASC
Precipitaciones de 06:00 a 12:00 en mm
DESCASC
Precipitaciones de 12:00 a 18:00 en mm
DESCASC
Precipitaciones de 18:00 a 24:00 en mm
DESCASC
24-09-2017 34.1 (17:10) 13.1 (08:10) 23.6 5.56 (21:30) 3.61 (21:10) 0 0 0 0 0
23-09-2017 34.4 (17:10) 13.8 (08:40) 24.1 4.17 (13:30) 3.33 (02:00) 0 0 0 0 0
22-09-2017 33.5 (16:20) 12.1 (07:50) 22.8 5.28 (17:20) 2.5 (18:40) 0 0 0 0 0
21-09-2017 33.5 (17:00) 11.3 (00:00) 22.4 6.67 (15:40) 3.89 (19:00) 0 0 0 0 0
20-09-2017 33.4 (15:30) 10 (00:00) 21.7 7.22 (17:10) 3.61 (16:20) 0 0 0 0 0
19-09-2017 33.4 (17:20) 10.1 (00:00) 21.8 5.83 (14:30) 2.78 (00:50) 0 0 0 0 0
18-09-2017 30.5 (17:20) 10.2 (00:00) 20.3 9.44 (17:30) 5.28 (17:30) 0 0 0 0 0
17-09-2017 29.8 (16:20) 9 (00:00) 19.4 8.33 (18:10) 4.44 (17:30) 0 0 0 0 0
16-09-2017 28.2 (17:20) 9.1 (00:00) 18.7 9.72 (14:30) 5 (13:30) 0 0 0 0 0
15-09-2017 30.7 (16:40) 16 (00:00) 23.4 11.11 (14:50) 5.83 (14:30) 0 0 0 0 0
14-09-2017 34.7 (17:00) 14.5 (00:00) 24.6 8.33 (18:00) 5 (19:20) 0 0 0 0 0
13-09-2017 37.2 (17:00) 12.8 (00:00) 25 6.94 (17:10) 4.17 (17:50) 0 0 0 0 0
12-09-2017 37 (16:50) 12.1 (00:00) 24.6 9.17 (16:40) 5 (17:40) 0 0 0 0 0
11-09-2017 36.2 (16:40) 11.1 (00:00) 23.7 6.39 (19:40) 3.89 (19:40) 0 0 0 0 0
10-09-2017 30.9 (16:30) 9.9 (00:00) 20.4 7.22 (13:40) 4.44 (02:50) 0 0 0 0 0
09-09-2017 29 (17:40) 14.4 (00:00) 21.7 12.22 (17:40) 7.22 (17:10) 0 0 0 0 0
08-09-2017 35.9 (16:20) 17.1 (00:00) 26.5 8.89 (18:00) 4.72 (16:00) 0 0 0 0 0
07-09-2017 37.7 (16:40) 20.3 (00:00) 29 6.39 (16:50) 3.89 (22:00) 0 0 0 0 0
06-09-2017 38.5 (17:30) 18.4 (00:00) 28.4 5.56 (18:40) 3.06 (18:40) 0 0 0 0 0
05-09-2017 37.7 (16:20) 15.3 (00:00) 26.5 6.11 (18:40) 3.33 (18:40) 0 0 0 0 0
04-09-2017 35 (16:30) 16 (00:00) 25.5 7.78 (16:10) 4.17 (18:50) 0 0 0 0 0
03-09-2017 35.4 (16:00) 19.8 (00:00) 27.6 6.11 (15:20) 3.61 (20:10) 0 0 0 0 0
02-09-2017 37.7 (18:00) 18.6 (00:00) 28.2 7.22 (21:20) 4.72 (21:30) 0 0 0 0 0
01-09-2017 36.1 (16:50) 17.4 (00:00) 26.7 6.11 (23:40) 3.89 (23:40) 0 0 0 0 0
31-08-2017 35 (17:00) 16.4 (00:00) 25.7 5.28 (14:00) 2.78 (02:20) 0 0 0 0 0
30-08-2017 31 (16:40) 14.8 (00:00) 22.9 6.39 (18:10) 3.06 (18:10) 0 0 0 0 0
29-08-2017 28.4 (15:00) 15.4 (00:00) 21.9 8.61 (21:30) 5 (15:40) 0.6 0 0 0 0.6
28-08-2017 22.8 (19:30) 17.2 (00:00) 20 6.94 (14:20) 3.89 (14:20) 6.4 0 0.1 6.3 0
27-08-2017 29.6 (00:10) 20.6 (00:00) 25.1 12.22 (15:40) 5 (15:40) 3.6 0 0 3.6 0
26-08-2017 37.7 (16:20) 19.2 (00:00) 28.5 6.94 (14:20) 4.17 (14:20) 0 0 0 0 0

Gráficas

Temp. máximas Temp. mínimas Temp. medias Precipitaciones Rachas de viento máximas Velocidades máximas media en intervalos de 10 minutos

Datos horarios

Fecha y hora oficial Temperatura (ºC) Velocidad del viento (km/h) Dirección del viento Racha (km/h) Dirección de racha Precipitación (mm) Presión (hPa) Tendencia (hPa) Humedad (%)
2017-09-24 23:00:00 21.6 0 Calma 7 Noroeste 0 995.1 1.4 51
2017-09-24 22:00:00 22.8 5 Noroeste 20 Oeste 0 994.8 1.2 46
2017-09-24 21:00:00 26.8 12 Oeste 18 Oeste 0 994.2 0.5 40
2017-09-24 20:00:00 27.2 9 Oeste 16 Oeste 0 993.7 -0.4 37
2017-09-24 19:00:00 31.9 11 Oeste 17 Noroeste 0 993.6 -1 33
2017-09-24 18:00:00 33.8 7 Oeste 19 Sudoeste 0 993.7 -1.4 33
2017-09-24 17:00:00 33.6 2 Norte 14 Oeste 0 994.1 -1.7 34
2017-09-24 16:00:00 32.3 4 Norte 13 Noroeste 0 994.6 -2.2 38
2017-09-24 15:00:00 31.2 4 Nordeste 16 Sudoeste 0 995.1 -2.1 42
2017-09-24 14:00:00 30 7 Sudoeste 13 Sudoeste 0 995.8 -1.8 47
2017-09-24 13:00:00 27.6 4 Noroeste 11 Oeste 0 996.8 -0.5 54
2017-09-24 12:00:00 25.7 4 Norte 9 Oeste 0 997.2 0.4 60
2017-09-24 11:00:00 25.1 0 Calma 7 Sudeste 0 997.6 1.3 62
2017-09-24 10:00:00 20.3 4 Este 6 Este 0 997.3 1.4 68
2017-09-24 09:00:00 15.6 0 Calma 5 Sur 0 996.8 1.4 83
2017-09-24 08:00:00 13.2 2 Sudeste 6 Este 0 996.3 0.9 85
2017-09-24 07:00:00 14.3 4 Este 6 Este 0 995.9 0.3 81
2017-09-24 06:00:00 14.3 0 Calma 4 Este 0 995.4 -0.3 81
2017-09-24 05:00:00 15.4 2 Este 7 Oeste 0 995.4 0.3 76
2017-09-24 04:00:00 15.6 7 Oeste 9 Oeste 0 995.6 1 78
2017-09-24 03:00:00 15.3 4 Oeste 7 Oeste 0 995.7 1.4 72
2017-09-24 02:00:00 17.1 2 Sudeste 9 Este 0 995.1 1.2 68
2017-09-24 01:00:00 17.3 0 Calma 6 Oeste 0 994.6 1.3 69
2017-09-24 00:00:00 18.7 2 Este 6 Sudeste 0 994.3 1.6 59
2017-09-23 23:00:00 20.2 2 Este 6 Noroeste 0 993.9 1.6 57
2017-09-23 22:00:00 21.5 4 Noroeste 8 Noroeste 0 993.3 1.4 54
2017-09-23 21:00:00 24.6 5 Sudoeste 11 Sudoeste 0 992.7 0.9 43
2017-09-23 20:00:00 27.2 6 Sudoeste 9 Sudoeste 0 992.3 0 38
2017-09-23 19:00:00 31.6 4 Oeste 11 Sudoeste 0 991.9 -0.8 32
2017-09-23 18:00:00 32.4 4 Noroeste 11 Noroeste 0 991.8 -1.8 32
2017-09-23 17:00:00 34.1 0 Calma 13 Sudeste 0 992.3 -1.9 32
2017-09-23 16:00:00 31.8 3 Norte 14 Sudeste 0 992.7 -2.1 36
2017-09-23 15:00:00 31.2 4 Este 12 Sudeste 0 993.6 -1.6 39
2017-09-23 14:00:00 29.5 4 Sudeste 15 Este 0 994.2 -1 46
2017-09-23 13:00:00 27.7 4 Este 13 Sudeste 0 994.8 -0.2 50
2017-09-23 12:00:00 25.7 2 Este 12 Este 0 995.2 0.7 60
2017-09-23 11:00:00 22 6 Este 10 Sudeste 0 995.2 1.2 64
2017-09-23 10:00:00 18.4 0 Calma 3 Sudeste 0 995 1.3 77
2017-09-23 09:00:00 15.1 0 Calma 5 Oeste 0 994.5 1.1 86
2017-09-23 08:00:00 14.3 0 Calma 6 Este 0 994 0.6 82
2017-09-23 07:00:00 14.6 3 Este 7 Este 0 993.7 0.2 81
2017-09-23 06:00:00 15.7 0 Calma 6 Este 0 993.4 -0.1 78
2017-09-23 05:00:00 16.6 0 Calma 6 Sudeste 0 993.4 0.3 77
2017-09-23 04:00:00 16.6 3 Sudeste 5 Sudeste 0 993.5 0.5 71
2017-09-23 03:00:00 17.9 0 Calma 13 Noroeste 0 993.5 1 73
2017-09-23 02:00:00 16.5 12 Oeste 13 Oeste 0 993.1 1.2 71
2017-09-23 01:00:00 16.6 4 Oeste 7 Oeste 0 993 1.6 61
2017-09-23 00:00:00 16.6 5 Noroeste 8 Noroeste 0 992.5 1.8 59
2017-09-22 23:00:00 19.4 3 Este 5 Este 0 991.9 1.7 50
2017-09-22 22:00:00 20.9 0 Calma 6 Oeste 0 991.4 1.2 47
2017-09-22 21:00:00 24.2 5 Noroeste 7 Noroeste 0 990.7 0.6 42
2017-09-22 20:00:00 25.4 5 Oeste 12 Noroeste 0 990.2 -0.4 41
2017-09-22 19:00:00 31 5 Noroeste 17 Oeste 0 990.2 -0.8 32
2017-09-22 18:00:00 32 7 Noroeste 19 Oeste 0 990.1 -1.6 32
2017-09-22 17:00:00 33.1 4 Oeste 17 Oeste 0 990.6 -1.8 32
2017-09-22 16:00:00 33.1 3 Oeste 13 Noroeste 0 991 -2 34
2017-09-22 15:00:00 31.1 3 Oeste 15 Noroeste 0 991.7 -1.9 38
2017-09-22 14:00:00 29 7 Noroeste 15 Noroeste 0 992.4 -1.3 41
2017-09-22 13:00:00 28.1 4 Oeste 10 Noroeste 0 993 -0.4 43
2017-09-22 12:00:00 25.1 3 Norte 9 Noroeste 0 993.6 0.4 47
2017-09-22 11:00:00 23.3 4 Sudeste 8 Este 0 993.7 1.1 52
2017-09-22 10:00:00 18.8 0 Calma 3 Oeste 0 993.4 1.5 67
2017-09-22 09:00:00 13.1 0 Calma 4 Este 0 993.2 1.6 74
2017-09-22 08:00:00 12.3 0 Calma 4 Sudeste 0 992.6 0.8 75
2017-09-22 07:00:00 12.8 0 Calma 7 Este 0 991.9 0.2 71
2017-09-22 06:00:00 13.1 0 Calma 0 Calma 0 991.6 -0.1 65
2017-09-22 05:00:00 13.5 0 Calma 5 Sudeste 0 991.8 0.1 63
2017-09-22 04:00:00 14 0 Calma 3 Noroeste 0 991.7 0.3 60
2017-09-22 03:00:00 15.4 0 Calma 3 Sudoeste 0 991.7 0.8 55
2017-09-22 02:00:00 16.5 0 Calma 4 Oeste 0 991.7 1.4 52
2017-09-22 01:00:00 17.2 0 Calma 5 Este 0 991.4 1.4 49
2017-09-22 00:00:00 18.4 0 Calma 7 Este 0 990.9 1.4 48
2017-09-21 23:00:00 19.2 0 Calma 3 Noroeste 0 990.3 1.1 44
2017-09-21 22:00:00 20.9 0 Calma 6 Norte 0 990 0.7 41
2017-09-21 21:00:00 24.4 4 Noroeste 10 Oeste 0 989.5 0.2 36
2017-09-21 20:00:00 26 8 Oeste 21 Oeste 0 989.2 -0.2 33
2017-09-21 19:00:00 31 14 Oeste 20 Oeste 0 989.3 -0.4 30
2017-09-21 18:00:00 31.5 10 Oeste 20 Oeste 0 989.3 -1.2 30
2017-09-21 17:00:00 33.5 7 Oeste 22 Oeste 0 989.4 -2 29
2017-09-21 16:00:00 32.9 3 Oeste 24 Oeste 0 989.7 -2.5 31
2017-09-21 15:00:00 31.8 8 Oeste 18 Oeste 0 990.5 -2.4 34
2017-09-21 14:00:00 30.1 6 Noroeste 14 Noroeste 0 991.4 -1.7 39
2017-09-21 13:00:00 28.3 2 Noroeste 10 Este 0 992.2 -1 43
2017-09-21 12:00:00 25.7 4 Este 15 Este 0 992.9 0 49
2017-09-21 11:00:00 23 6 Este 14 Este 0 993.1 0.5 56
2017-09-21 10:00:00 19.5 4 Este 9 Este 0 993.2 1.1 61
2017-09-21 09:00:00 13.8 0 Calma 4 Sudeste 0 992.9 1 71
2017-09-21 08:00:00 11.7 0 Calma 3 Este 0 992.6 0.5 74
2017-09-21 07:00:00 12 0 Calma 3 Sudeste 0 992.1 -0.1 74
2017-09-21 06:00:00 12.6 0 Calma 6 Este 0 991.9 -0.5 75
2017-09-21 05:00:00 13.6 4 Este 7 Este 0 992.1 -0.3 74
2017-09-21 04:00:00 14.6 3 Sudeste 7 Este 0 992.2 0.1 65
2017-09-21 03:00:00 15.9 4 Sudeste 6 Este 0 992.4 0.5 61
2017-09-21 02:00:00 15.4 3 Noroeste 4 Noroeste 0 992.4 0.7 64
2017-09-21 01:00:00 16.7 0 Calma 5 Norte 0 992.1 0.9 54
2017-09-21 00:00:00 17.4 0 Calma 5 Sudoeste 0 991.9 1.1 52
2017-09-20 23:00:00 19.2 0 Calma 5 Noroeste 0 991.7 0.9 49
2017-09-20 22:00:00 21.1 0 Calma 7 Noroeste 0 991.2 0.2 46
2017-09-20 21:00:00 23.4 4 Oeste 10 Oeste 0 990.8 -0.3 40
2017-09-20 20:00:00 26.8 6 Oeste 17 Oeste 0 990.8 -0.8 36
2017-09-20 19:00:00 31.2 9 Oeste 21 Oeste 0 991 -1.2 32
2017-09-20 18:00:00 32.4 11 Oeste 26 Oeste 0 991.1 -1.8 31
2017-09-20 17:00:00 32.8 7 Sudoeste 25 Oeste 0 991.6 -2.2 31
2017-09-20 16:00:00 32.7 9 Oeste 19 Oeste 0 992.2 -2.4 32
2017-09-20 15:00:00 31.9 4 Noroeste 15 Noroeste 0 992.9 -2.3 35
2017-09-20 14:00:00 29.9 3 Noroeste 11 Nordeste 0 993.8 -1.8 39
2017-09-20 13:00:00 28.9 3 Sudeste 13 Este 0 994.6 -1.2 42
2017-09-20 12:00:00 25.8 5 Este 14 Sudeste 0 995.2 -0.6 46
2017-09-20 11:00:00 21.6 9 Este 18 Este 0 995.6 -0.1 50
2017-09-20 10:00:00 18.3 4 Este 9 Este 0 995.8 0.3 61
2017-09-20 09:00:00 12.2 0 Calma 5 Este 0 995.8 0.4 72
2017-09-20 08:00:00 10.1 0 Calma 3 Este 0 995.7 0.1 76
2017-09-20 07:00:00 10.4 0 Calma 4 Sudeste 0 995.5 0 71
2017-09-20 06:00:00 11.2 2 Sudeste 5 Sudeste 0 995.4 -0.1 67
2017-09-20 05:00:00 12.3 2 Sudeste 4 Este 0 995.6 0.3 66
2017-09-20 04:00:00 12.9 0 Calma 4 Sur 0 995.5 0.4 64
2017-09-20 03:00:00 13.5 3 Oeste 8 Oeste 0 995.5 0.5 64
2017-09-20 02:00:00 14.1 0 Calma 7 Sudoeste 0 995.3 0.4 58
2017-09-20 01:00:00 15.3 2 Este 4 Sudeste 0 995.1 0.4 58
2017-09-20 00:00:00 16.3 4 Sudeste 8 Este 0 995 0.8 51
2017-09-19 23:00:00 17.7 0 Calma 4 Sudoeste 0 994.9 1.3 45
2017-09-19 22:00:00 19.4 0 Calma 5 Oeste 0 994.7 1.1 42
2017-09-19 21:00:00 22.9 2 Sur 9 Sur 0 994.2 0.3 36
2017-09-19 20:00:00 26.9 3 Sudoeste 10 Sudoeste 0 993.6 -0.7 32
2017-09-19 19:00:00 30.7 3 Sudeste 13 Sur 0 993.6 -1.3 29
2017-09-19 18:00:00 32.2 0 Calma 12 Sudoeste 0 993.9 -1.9 29
2017-09-19 17:00:00 32.3 3 Oeste 12 Sudoeste 0 994.3 -2.4 30
2017-09-19 16:00:00 32.3 3 Sudeste 14 Sudeste 0 994.9 -2.5 31
2017-09-19 15:00:00 30.3 5 Este 21 Sudeste 0 995.8 -2 32
2017-09-19 14:00:00 30.5 3 Sudeste 15 Este 0 996.7 -1 34
2017-09-19 13:00:00 28.1 6 Este 18 Sudeste 0 997.4 -0.2 39
2017-09-19 12:00:00 26.3 6 Sudeste 20 Sudeste 0 997.8 0.5 46
2017-09-19 11:00:00 22 7 Este 14 Sudeste 0 997.7 0.8 55
2017-09-19 10:00:00 18.4 3 Este 9 Sudeste 0 997.6 1.2 67
2017-09-19 09:00:00 13 0 Calma 4 Este 0 997.3 1.2 81
2017-09-19 08:00:00 10.5 0 Calma 6 Sudeste 0 996.9 0.9 81
2017-09-19 07:00:00 11 0 Calma 4 Este 0 996.4 0.3 79
2017-09-19 06:00:00 11.8 0 Calma 5 Sudeste 0 996.1 -0.3 77
2017-09-19 05:00:00 12.9 0 Calma 6 Sudoeste 0 996 -0.3 74
2017-09-19 04:00:00 14 2 Sudeste 7 Este 0 996.1 0 68
2017-09-19 03:00:00 15.1 0 Calma 5 Sudoeste 0 996.4 0.6 65
2017-09-19 02:00:00 17 0 Calma 8 Sudoeste 0 996.3 0.7 59
2017-09-19 01:00:00 20.9 10 Sudoeste 16 Sudoeste 0 996.1 1 54
2017-09-19 00:00:00 20 0 Calma 13 Oeste 0 995.8 1.4 54
2017-09-18 23:00:00 21.4 7 Noroeste 15 Nordeste 0 995.6 2.1 53
2017-09-18 22:00:00 21.3 8 Oeste 12 Oeste 0 995.1 1.9 51
2017-09-18 21:00:00 22.8 7 Noroeste 18 Noroeste 0 994.4 1.6 45
2017-09-18 20:00:00 25.9 9 Noroeste 24 Noroeste 0 993.5 0.6 39
2017-09-18 19:00:00 28.3 12 Noroeste 26 Sudoeste 0 993.2 -0.2 36
2017-09-18 18:00:00 29.6 14 Oeste 34 Sudoeste 0 992.8 -1.6 34
2017-09-18 17:00:00 30 16 Oeste 30 Oeste 0 992.9 -2.3 33
2017-09-18 16:00:00 29.4 14 Noroeste 28 Oeste 0 993.4 -2.4 33
2017-09-18 15:00:00 29 11 Oeste 25 Oeste 0 994.4 -1.9 33
2017-09-18 14:00:00 27 12 Oeste 28 Sudoeste 0 995.2 -1.1 36
2017-09-18 13:00:00 25.1 13 Oeste 24 Oeste 0 995.8 0 41
2017-09-18 12:00:00 23.7 8 Oeste 19 Oeste 0 996.3 0.9 47
2017-09-18 11:00:00 20.1 12 Oeste 19 Oeste 0 996.3 1.4 57
2017-09-18 10:00:00 17.5 5 Noroeste 11 Noroeste 0 995.8 1.5 67
2017-09-18 09:00:00 12.6 0 Calma 4 Sudeste 0 995.4 1.3 78
2017-09-18 08:00:00 10.5 0 Calma 4 Noroeste 0 994.9 0.7 81
2017-09-18 07:00:00 10.9 0 Calma 5 Noroeste 0 994.3 0.4 77
2017-09-18 06:00:00 12.8 5 Noroeste 7 Noroeste 0 994.1 0 74
2017-09-18 05:00:00 12 2 Noroeste 6 Noroeste 0 994.2 0.3 70
2017-09-18 04:00:00 13.6 0 Calma 7 Oeste 0 993.9 0.2 65
2017-09-18 03:00:00 14 3 Noroeste 8 Oeste 0 994.1 0.6 59
2017-09-18 02:00:00 16.2 0 Calma 16 Oeste 0 993.9 0.6 54
2017-09-18 01:00:00 20.6 13 Sudoeste 24 Oeste 0 993.7 1 45
2017-09-18 00:00:00 21.2 12 Sudoeste 19 Sudoeste 0 993.5 1.3 43
2017-09-17 23:00:00 19.3 5 Sudoeste 13 Sudoeste 0 993.3 1.5 44
2017-09-17 22:00:00 22 10 Sudoeste 15 Oeste 0 992.7 0.9 39
2017-09-17 21:00:00 22.7 8 Sudoeste 13 Oeste 0 992.2 0.4 36
2017-09-17 20:00:00 24.7 9 Oeste 24 Oeste 0 991.8 -0.1 33
2017-09-17 19:00:00 26.9 13 Oeste 30 Oeste 0 991.8 -0.6 31
2017-09-17 18:00:00 29.3 11 Oeste 25 Oeste 0 991.8 -1.3 32
2017-09-17 17:00:00 28 11 Oeste 25 Oeste 0 991.9 -2.1 32
2017-09-17 16:00:00 29 12 Noroeste 21 Noroeste 0 992.4 -2.4 32
2017-09-17 15:00:00 29 3 Oeste 16 Oeste 0 993.1 -2 34
2017-09-17 14:00:00 27.7 2 Oeste 13 Este 0 994 -1.3 38
2017-09-17 13:00:00 25.1 3 Noroeste 9 Sudeste 0 994.8 0 44
2017-09-17 12:00:00 23.4 4 Sudeste 11 Sudeste 0 995.1 0.7 52
2017-09-17 11:00:00 21.7 0 Calma 10 Nordeste 0 995.3 1.4 56
2017-09-17 10:00:00 17.9 0 Calma 6 Este 0 994.8 1.5 64
2017-09-17 09:00:00 11.7 0 Calma 5 Sur 0 994.4 1.5 82
2017-09-17 08:00:00 9.5 3 Este 5 Este 0 993.9 1.3 82
2017-09-17 07:00:00 9.9 0 Calma 5 Sudeste 0 993.3 0.9 80
2017-09-17 06:00:00 11.4 0 Calma 6 Sudoeste 0 992.9 0.5 76
2017-09-17 05:00:00 11.9 0 Calma 5 Sudoeste 0 992.6 0.3 74
2017-09-17 04:00:00 11.7 2 Oeste 6 Noroeste 0 992.4 0.4 73
2017-09-17 03:00:00 13.7 5 Noroeste 8 Noroeste 0 992.4 0.3 64
2017-09-17 02:00:00 15.4 4 Oeste 9 Noroeste 0 992.3 1 56
2017-09-17 01:00:00 17 3 Noroeste 19 Oeste 0 992 1.6 50
2017-09-17 00:00:00 20.2 13 Oeste 24 Oeste 0 992.1 2.7 44
2017-09-16 23:00:00 20.9 12 Oeste 22 Sudoeste 0 991.3 2.5 40
2017-09-16 22:00:00 20 8 Sudoeste 13 Sudoeste 0 990.4 2 40
2017-09-16 21:00:00 21.6 6 Sudoeste 12 Sudoeste 0 989.4 1.1 38
2017-09-16 20:00:00 23.9 7 Oeste 18 Oeste 0 988.8 0.6 36
2017-09-16 19:00:00 26 12 Oeste 24 Oeste 0 988.4 -0.2 33
2017-09-16 18:00:00 26.3 14 Oeste 24 Sudoeste 0 988.3 -1 32
2017-09-16 17:00:00 27.7 10 Sudoeste 25 Sudoeste 0 988.2 -1.6 31
2017-09-16 16:00:00 27.1 13 Oeste 27 Oeste 0 988.6 -1.2 31
2017-09-16 15:00:00 26.2 13 Oeste 35 Oeste 0 989.3 -1 35
2017-09-16 14:00:00 25.1 17 Oeste 31 Oeste 0 989.8 -0.6 37
2017-09-16 13:00:00 24.6 14 Oeste 24 Oeste 0 989.8 0.1 41
2017-09-16 12:00:00 21.7 12 Oeste 21 Oeste 0 990.3 1.1 48
2017-09-16 11:00:00 19.6 12 Oeste 21 Noroeste 0 990.4 1.9 57
2017-09-16 10:00:00 16.6 6 Noroeste 10 Noroeste 0 989.7 1.9 64
2017-09-16 09:00:00 11.9 0 Calma 5 Oeste 0 989.2 1.7 79
2017-09-16 08:00:00 9.5 3 Oeste 4 Sudoeste 0 988.5 1.3 81
2017-09-16 07:00:00 9.3 0 Calma 3 Este 0 987.8 0.5 80
2017-09-16 06:00:00 10 0 Calma 3 Norte 0 987.5 0 78
2017-09-16 05:00:00 9.9 4 Noroeste 8 Oeste 0 987.2 -0.2 77
2017-09-16 04:00:00 11.2 4 Oeste 5 Oeste 0 987.3 0 67
2017-09-16 03:00:00 13.1 0 Calma 5 Noroeste 0 987.5 0.1 63
2017-09-16 02:00:00 15.2 3 Este 8 Noroeste 0 987.4 0.4 58
2017-09-16 01:00:00 15.6 6 Oeste 12 Oeste 0 987.3 0.5 54
2017-09-16 00:00:00 18 6 Oeste 20 Sudoeste 0 987.4 1.5 42
2017-09-15 23:00:00 21.7 12 Sudoeste 18 Sudoeste 0 987 1.7 33
2017-09-15 22:00:00 20.2 7 Sudoeste 11 Sudoeste 0 986.8 1.6 34
2017-09-15 21:00:00 21 8 Oeste 21 Oeste 0 985.9 1.1 32
2017-09-15 20:00:00 25.8 14 Noroeste 30 Oeste 0 985.3 0.1 28
2017-09-15 19:00:00 28.1 19 Oeste 33 Oeste 0 985.2 -0.6 29
2017-09-15 18:00:00 29.5 19 Oeste 32 Oeste 0 984.8 -1.8 29
2017-09-15 17:00:00 29.8 18 Oeste 33 Oeste 0 985.2 -2.1 29
2017-09-15 16:00:00 29.4 20 Sudoeste 33 Oeste 0 985.8 -2 29
2017-09-15 15:00:00 28.8 17 Oeste 40 Sudoeste 0 986.6 -1.8 30
2017-09-15 14:00:00 28.2 18 Oeste 35 Oeste 0 987.3 -1.2 33
2017-09-15 13:00:00 26.2 18 Oeste 34 Oeste 0 987.8 -0.6 43
2017-09-15 12:00:00 26 15 Oeste 27 Oeste 0 988.4 -0.1 42
2017-09-15 11:00:00 23.6 14 Oeste 24 Oeste 0 988.5 0.2 58
2017-09-15 10:00:00 21.5 11 Oeste 18 Oeste 0 988.4 0.3 72
2017-09-15 09:00:00 17.4 3 Oeste 8 Oeste 0 988.5 -0.1 86
2017-09-15 08:00:00 16.6 0 Calma 4 Sudoeste 0 988.3 -0.4 81
2017-09-15 07:00:00 16.9 0 Calma 6 Oeste 0 988.1 -1.5 77
2017-09-15 06:00:00 17.1 6 Oeste 7 Oeste 0 988.6 -1.1 72
2017-09-15 05:00:00 17.9 5 Noroeste 17 Oeste 0 988.7 -0.9 70
2017-09-15 04:00:00 17.1 2 Sudoeste 14 Sudoeste 0 989.6 -0.4 69
2017-09-15 03:00:00 18.5 9 Oeste 15 Noroeste 0 989.7 -0.2 60
2017-09-15 02:00:00 20.5 11 Oeste 13 Oeste 0 989.6 -0.6 54
2017-09-15 01:00:00 23 10 Oeste 19 Oeste 0 990 -0.2 45
2017-09-15 00:00:00 24.2 11 Oeste 14 Oeste 0 989.9 0 44
2017-09-14 23:00:00 24.8 8 Oeste 17 Oeste 0 990.2 0.6 41
2017-09-14 22:00:00 27.5 10 Oeste 19 Oeste 0 990.2 0.7 37
2017-09-14 21:00:00 28.5 11 Oeste 26 Oeste 0 989.9 0.2 35
2017-09-14 20:00:00 30.3 10 Oeste 28 Oeste 0 989.6 -0.7 33
2017-09-14 19:00:00 32.1 15 Sudoeste 29 Sudoeste 0 989.5 -2 32
2017-09-14 18:00:00 33.4 16 Sudoeste 30 Sudoeste 0 989.7 -2.9 32
2017-09-14 17:00:00 34.1 12 Oeste 28 Sudoeste 0 990.3 -3.4 32
2017-09-14 16:00:00 33.4 13 Sudoeste 28 Sudoeste 0 991.5 -3.1 33
2017-09-14 15:00:00 33.1 12 Oeste 24 Oeste 0 992.6 -2.5 37
2017-09-14 14:00:00 31.9 10 Oeste 24 Oeste 0 993.7 -2 43
2017-09-14 13:00:00 29.8 5 Oeste 19 Oeste 0 994.6 -0.9 51
2017-09-14 12:00:00 28.1 9 Oeste 17 Noroeste 0 995.1 -0.4 58
2017-09-14 11:00:00 25 7 Noroeste 13 Noroeste 0 995.7 0.7 66
2017-09-14 10:00:00 23.9 0 Calma 3 Sudeste 0 995.5 0.4 67
2017-09-14 09:00:00 17.9 0 Calma 4 Este 0 995.5 0.7 79
2017-09-14 08:00:00 15.9 2 Sudoeste 6 Oeste 0 995 0.2 85
2017-09-14 07:00:00 15.8 0 Calma 4 Sudoeste 0 995.1 0.3 79
2017-09-14 06:00:00 16.9 0 Calma 5 Sudeste 0 994.8 -0.5 74
2017-09-14 05:00:00 17.9 3 Sudoeste 5 Sudoeste 0 994.8 -0.2 69
2017-09-14 04:00:00 19.1 0 Calma 5 Sudoeste 0 994.8 0 61
2017-09-14 03:00:00 19.3 0 Calma 6 Norte 0 995.3 0.7 55
2017-09-14 02:00:00 20.7 3 Noroeste 14 Noroeste 0 995 0.9 50
2017-09-14 01:00:00 22.4 7 Noroeste 14 Oeste 0 994.8 1.1 48
2017-09-14 00:00:00 21.8 5 Noroeste 9 Noroeste 0 994.6 1.4 46
2017-09-13 23:00:00 21.6 7 Oeste 9 Noroeste 0 994.1 1.2 43
2017-09-13 22:00:00 27.4 6 Sudoeste 16 Sudoeste 0 993.7 0.9 32
2017-09-13 21:00:00 29.1 9 Sudoeste 13 Sudoeste 0 993.2 0 31
2017-09-13 20:00:00 30.9 10 Oeste 18 Oeste 0 992.9 -0.8 30
2017-09-13 19:00:00 34.1 7 Noroeste 21 Noroeste 0 992.8 -1.6 29
2017-09-13 18:00:00 35.7 12 Noroeste 25 Noroeste 0 993.2 -2.1 26
2017-09-13 17:00:00 36.7 12 Noroeste 24 Noroeste 0 993.7 -2.3 27
2017-09-13 16:00:00 35.7 10 Oeste 24 Noroeste 0 994.4 -2.3 28
2017-09-13 15:00:00 34.8 10 Oeste 21 Oeste 0 995.3 -1.6 30
2017-09-13 14:00:00 34.4 0 Calma 11 Este 0 996 -0.9 31
2017-09-13 13:00:00 32.5 2 Sur 11 Sudeste 0 996.7 0.1 36
2017-09-13 12:00:00 29 5 Este 9 Este 0 996.9 0.7 41
2017-09-13 11:00:00 25.1 0 Calma 6 Noroeste 0 996.9 1.1 45
2017-09-13 10:00:00 21.8 0 Calma 6 Este 0 996.6 1.5 53
2017-09-13 09:00:00 15.9 2 Este 5 Este 0 996.2 1.8 62
2017-09-13 08:00:00 12.9 0 Calma 5 Este 0 995.8 1.9 65
2017-09-13 07:00:00 13.7 0 Calma 8 Noroeste 0 995.1 0.9 67
2017-09-13 06:00:00 14.8 6 Noroeste 11 Noroeste 0 994.4 0.2 64
2017-09-13 05:00:00 14.7 0 Calma 4 Oeste 0 993.9 -0.5 59
2017-09-13 04:00:00 15.7 0 Calma 4 Sudeste 0 994.2 -0.1 54
2017-09-13 03:00:00 15.7 0 Calma 4 Oeste 0 994.2 0.2 51
2017-09-13 02:00:00 17.4 0 Calma 4 Oeste 0 994.4 0.8 46
2017-09-13 01:00:00 18.3 0 Calma 5 Noroeste 0 994.3 1.7 43
2017-09-13 00:00:00 19.4 0 Calma 11 Este 0 994 2.6 39
2017-09-12 23:00:00 21.3 4 Sudeste 12 Este 0 993.6 2.9 34
2017-09-12 22:00:00 24.2 3 Sudoeste 9 Oeste 0 992.6 2.1 30
2017-09-12 21:00:00 24.9 8 Oeste 11 Oeste 0 991.4 1.3 31
2017-09-12 20:00:00 28.6 10 Oeste 22 Noroeste 0 990.7 0.8 29
2017-09-12 19:00:00 33.5 14 Noroeste 26 Oeste 0 990.5 0.1 24
2017-09-12 18:00:00 35.3 18 Oeste 32 Oeste 0 990.1 -0.9 23
2017-09-12 17:00:00 35.9 12 Sudoeste 33 Sur 0 989.9 -1.6 24
2017-09-12 16:00:00 35.8 10 Oeste 20 Oeste 0 990.4 -1.6 26
2017-09-12 15:00:00 34.3 8 Sudoeste 23 Sudoeste 0 991 -1.2 29
2017-09-12 14:00:00 33.4 2 Noroeste 15 Oeste 0 991.5 -0.8 31
2017-09-12 13:00:00 31.6 0 Calma 12 Oeste 0 992 0 35
2017-09-12 12:00:00 28.5 2 Norte 7 Noroeste 0 992.2 0.5 39
2017-09-12 11:00:00 25.8 2 Nordeste 8 Noroeste 0 992.3 1.8 44
2017-09-12 10:00:00 21.8 2 Sudeste 6 Este 0 992 2.1 54
2017-09-12 09:00:00 15.4 2 Este 5 Oeste 0 991.7 1.9 71
2017-09-12 08:00:00 12.8 2 Sudeste 6 Sudeste 0 990.5 0.9 71
2017-09-12 07:00:00 13.3 0 Calma 10 Oeste 0 989.9 0.3 69
2017-09-12 06:00:00 13.9 0 Calma 6 Sudeste 0 989.8 0.4 60
2017-09-12 05:00:00 14.4 2 Oeste 6 Sudoeste 0 989.6 0.4 57
2017-09-12 04:00:00 16.2 0 Calma 5 Este 0 989.6 0.4 53
2017-09-12 03:00:00 17.6 2 Este 6 Sudeste 0 989.4 0.2 50
2017-09-12 02:00:00 19.9 0 Calma 5 Sudeste 0 989.2 0.3 44
2017-09-12 01:00:00 23 3 Este 15 Sudoeste 0 989.2 0.9 40
2017-09-12 00:00:00 24.6 4 Noroeste 16 Noroeste 0 989.2 1.6 38
2017-09-11 23:00:00 24.9 4 Oeste 13 Oeste 0 988.9 1.8 37
2017-09-11 22:00:00 25.4 6 Oeste 12 Oeste 0 988.3 1.1 35
2017-09-11 21:00:00 26.9 6 Oeste 18 Oeste 0 987.6 0.2 31
2017-09-11 20:00:00 31.5 12 Oeste 23 Oeste 0 987.1 -0.8 26
2017-09-11 19:00:00 34 6 Sudoeste 19 Oeste 0 987.2 -1.6 24
2017-09-11 18:00:00 35.5 7 Oeste 18 Oeste 0 987.4 -2.2 24
2017-09-11 17:00:00 35.1 9 Oeste 21 Oeste 0 987.9 -2.5 24
2017-09-11 16:00:00 34 8 Oeste 16 Noroeste 0 988.8 -2.4 24
2017-09-11 15:00:00 33.1 5 Noroeste 12 Oeste 0 989.6 -2.1 26
2017-09-11 14:00:00 32 4 Noroeste 10 Oeste 0 990.4 -1.2 28
2017-09-11 13:00:00 30.2 3 Sudoeste 8 Este 0 991.2 -0.2 31
2017-09-11 12:00:00 27.1 4 Este 12 Este 0 991.7 0.1 35
2017-09-11 11:00:00 23.9 3 Este 8 Nordeste 0 991.6 0.4 43
2017-09-11 10:00:00 20.5 0 Calma 6 Este 0 991.4 0.8 53
2017-09-11 09:00:00 14.7 0 Calma 4 Sudeste 0 991.6 1.2 65
2017-09-11 08:00:00 11.6 2 Sudeste 5 Oeste 0 991.2 0.7 70
2017-09-11 07:00:00 12 0 Calma 6 Oeste 0 990.6 -0.1 68
2017-09-11 06:00:00 12.5 0 Calma 8 Sudeste 0 990.4 -0.9 61
2017-09-11 05:00:00 13.4 2 Sur 4 Sur 0 990.5 -0.7 61
2017-09-11 04:00:00 13.9 0 Calma 5 Nordeste 0 990.7 -0.4 60
2017-09-11 03:00:00 14.9 0 Calma 7 Sudeste 0 991.3 0.5 57
2017-09-11 02:00:00 15.4 3 Este 6 Este 0 991.2 0.7 49
2017-09-11 01:00:00 17.2 0 Calma 6 Sur 0 991.1 1.2 47
2017-09-11 00:00:00 19.9 0 Calma 13 Sudoeste 0 990.8 1.6 40
2017-09-10 23:00:00 19.1 2 Sudoeste 4 Oeste 0 990.5 1.7 42
2017-09-10 22:00:00 20.7 4 Oeste 16 Sudoeste 0 989.9 1.3 40
2017-09-10 21:00:00 22.5 7 Sur 8 Sudoeste 0 989.2 0.6 34
2017-09-10 20:00:00 26.7 4 Sudoeste 13 Oeste 0 988.8 -0.3 32
2017-09-10 19:00:00 28.5 5 Sudoeste 19 Sudoeste 0 988.6 -1.1 29
2017-09-10 18:00:00 29.9 6 Sudoeste 16 Oeste 0 988.6 -1.6 29
2017-09-10 17:00:00 29.9 6 Sur 17 Sur 0 989.1 -1.4 28
2017-09-10 16:00:00 29 4 Norte 18 Noroeste 0 989.7 -1.1 30
2017-09-10 15:00:00 28.3 4 Oeste 21 Sur 0 990.2 -0.9 32
2017-09-10 14:00:00 27.8 7 Sudeste 26 Sudoeste 0 990.5 -0.1 34
2017-09-10 13:00:00 26.5 4 Sudeste 19 Este 0 990.8 0.5 37
2017-09-10 12:00:00 24.6 6 Sudeste 21 Este 0 991.1 1.4 42
2017-09-10 11:00:00 22 13 Este 23 Este 0 990.6 1.6 47
2017-09-10 10:00:00 19.5 4 Este 8 Este 0 990.3 2 60
2017-09-10 09:00:00 14.2 2 Este 9 Este 0 989.7 2 74
2017-09-10 08:00:00 10.3 4 Noroeste 7 Noroeste 0 989 1.7 76
2017-09-10 07:00:00 12.5 2 Sudeste 7 Este 0 988.3 1.4 69
2017-09-10 06:00:00 13.7 2 Sudeste 7 Oeste 0 987.7 1.1 64
2017-09-10 05:00:00 15 2 Sudoeste 10 Oeste 0 987.3 0.9 58
2017-09-10 04:00:00 17.6 0 Calma 22 Oeste 0 986.9 1 51
2017-09-10 03:00:00 19.4 15 Oeste 24 Oeste 0 986.6 1.1 48
2017-09-10 02:00:00 19.4 10 Oeste 15 Oeste 0 986.4 1.3 47
2017-09-10 01:00:00 17.3 12 Oeste 16 Oeste 0 985.9 1.5 52
2017-09-10 00:00:00 19.6 12 Oeste 16 Oeste 0 985.5 2.2 49
2017-09-09 23:00:00 20.4 12 Oeste 18 Noroeste 0 985.1 2.2 50
2017-09-09 22:00:00 24.3 12 Noroeste 31 Noroeste 0 984.4 1.3 43
2017-09-09 21:00:00 25.7 15 Noroeste 32 Oeste 0 983.3 0.2 42
2017-09-09 20:00:00 26.8 21 Oeste 40 Oeste 0 982.9 -0.6 41
2017-09-09 19:00:00 27.8 21 Oeste 41 Oeste 0 983.1 -1.2 40
2017-09-09 18:00:00 28.8 24 Oeste 44 Oeste 0 983.1 -1.8 38
2017-09-09 17:00:00 28.2 23 Sudoeste 40 Oeste 0 983.5 -2 38
2017-09-09 16:00:00 28.1 20 Sudoeste 41 Sudoeste 0 984.3 -2.2 40
2017-09-09 15:00:00 25.7 17 Sudoeste 31 Sudoeste 0 984.9 -1.9 40
2017-09-09 14:00:00 23.8 18 Oeste 31 Oeste 0 985.5 -1.5 41
2017-09-09 13:00:00 23.9 18 Oeste 28 Oeste 0 986.5 -0.6 41
2017-09-09 12:00:00 23.1 16 Oeste 25 Oeste 0 986.8 0.1 44
2017-09-09 11:00:00 22 15 Oeste 27 Oeste 0 987 0.6 50
2017-09-09 10:00:00 19.7 6 Noroeste 11 Noroeste 0 987.1 1.1 71
2017-09-09 09:00:00 15.9 7 Oeste 12 Oeste 0 986.7 0.6 81
2017-09-09 08:00:00 15.3 9 Oeste 13 Oeste 0 986.4 0.1 79
2017-09-09 07:00:00 14.6 2 Noroeste 5 Oeste 0 986 -0.8 70
2017-09-09 06:00:00 16 0 Calma 5 Sudoeste 0 986.1 -0.7 65
2017-09-09 05:00:00 17.1 0 Calma 13 Oeste 0 986.3 -0.6 62
2017-09-09 04:00:00 16.6 5 Oeste 6 Oeste 0 986.8 -0.2 60
2017-09-09 03:00:00 17.8 0 Calma 4 Sudoeste 0 986.8 -0.4 53
2017-09-09 02:00:00 20.1 0 Calma 6 Sur 0 986.9 -0.3 46
2017-09-09 01:00:00 24.7 5 Oeste 26 Sudoeste 0 987 0.7 37
2017-09-09 00:00:00 26 9 Sudoeste 20 Sudoeste 0 987.2 1.4 36
2017-09-08 23:00:00 27.1 12 Oeste 18 Oeste 0 987.2 1.8 33
2017-09-08 22:00:00 27.8 11 Sudoeste 18 Oeste 0 986.3 0.7 29
2017-09-08 21:00:00 28.7 7 Oeste 18 Sudoeste 0 985.8 -0.1 29
2017-09-08 20:00:00 31.9 10 Oeste 27 Oeste 0 985.4 -1.3 26
2017-09-08 19:00:00 34.1 13 Sudoeste 26 Oeste 0 985.6 -1.9 25
2017-09-08 18:00:00 35.3 17 Sudoeste 32 Sudoeste 0 985.9 -2.5 26
2017-09-08 17:00:00 35.4 15 Sudoeste 31 Sudoeste 0 986.7 -2.4 28
2017-09-08 16:00:00 35.3 17 Noroeste 30 Noroeste 0 987.5 -2.4 31
2017-09-08 15:00:00 33.9 10 Noroeste 22 Oeste 0 988.4 -2.2 38
2017-09-08 14:00:00 33.2 7 Oeste 20 Oeste 0 989.1 -1.6 41
2017-09-08 13:00:00 31 6 Noroeste 14 Oeste 0 989.9 -0.7 47
2017-09-08 12:00:00 28.7 3 Norte 13 Oeste 0 990.6 0.2 50
2017-09-08 11:00:00 27.2 2 Norte 5 Norte 0 990.7 0.8 55
2017-09-08 10:00:00 24.4 0 Calma 5 Este 0 990.6 0.9 64
2017-09-08 09:00:00 18.9 3 Este 6 Este 0 990.4 0.7 78
2017-09-08 08:00:00 17.3 0 Calma 6 Noroeste 0 989.9 0 78
2017-09-08 07:00:00 17.8 2 Oeste 5 Oeste 0 989.7 -0.3 75
2017-09-08 06:00:00 18 0 Calma 4 Oeste 0 989.7 -0.4 70
2017-09-08 05:00:00 19.4 0 Calma 4 Sudeste 0 989.9 -0.4 66
2017-09-08 04:00:00 20.9 0 Calma 7 Sudoeste 0 990 0.1 61
2017-09-08 03:00:00 22.3 0 Calma 12 Oeste 0 990.1 0.4 58
2017-09-08 02:00:00 22.7 0 Calma 8 Sudeste 0 990.3 0.8 54
2017-09-08 01:00:00 23.1 2 Sudeste 6 Este 0 989.9 1.4 50
2017-09-08 00:00:00 24.9 4 Sudeste 14 Oeste 0 989.7 1.5 45
2017-09-07 23:00:00 27.1 4 Oeste 19 Oeste 0 989.5 1.7 39
2017-09-07 22:00:00 30.1 14 Oeste 21 Oeste 0 988.5 0.9 36
2017-09-07 21:00:00 30.4 10 Sudoeste 15 Sudoeste 0 988.2 0.2 34
2017-09-07 20:00:00 32.7 10 Oeste 22 Oeste 0 987.8 -0.7 32
2017-09-07 19:00:00 34.5 12 Oeste 21 Oeste 0 987.6 -1.6 30
2017-09-07 18:00:00 36 10 Oeste 18 Oeste 0 988 -2.1 29
2017-09-07 17:00:00 37.3 5 Oeste 23 Oeste 0 988.5 -2.3 29
2017-09-07 16:00:00 36.1 8 Sudoeste 20 Sudoeste 0 989.2 -2.4 31
2017-09-07 15:00:00 36.1 2 Noroeste 18 Noroeste 0 990.1 -2 33
2017-09-07 14:00:00 33.3 6 Noroeste 16 Noroeste 0 990.8 -1.6 37
2017-09-07 13:00:00 32.4 3 Oeste 14 Oeste 0 991.6 -0.4 38
2017-09-07 12:00:00 30.8 3 Noroeste 12 Oeste 0 992.1 0.2 43
2017-09-07 11:00:00 28.7 2 Noroeste 8 Sur 0 992.4 0.8 48
2017-09-07 10:00:00 26.2 0 Calma 6 Sudeste 0 992 0.8 53
2017-09-07 09:00:00 22.4 0 Calma 10 Sudoeste 0 991.9 0.5 58
2017-09-07 08:00:00 21.2 7 Sudoeste 11 Sudoeste 0 991.6 0 58
2017-09-07 07:00:00 20.9 7 Sudoeste 12 Sudoeste 0 991.2 -0.4 60
2017-09-07 06:00:00 20.6 6 Oeste 8 Oeste 0 991.4 -0.4 61
2017-09-07 05:00:00 21.2 6 Oeste 12 Oeste 0 991.6 -0.5 60
2017-09-07 04:00:00 21.3 8 Oeste 11 Oeste 0 991.6 -0.2 60
2017-09-07 03:00:00 22.3 4 Noroeste 10 Oeste 0 991.8 0.6 55
2017-09-07 02:00:00 23.7 8 Oeste 10 Oeste 0 992.1 1.3 51
2017-09-07 01:00:00 23.6 8 Noroeste 19 Oeste 0 991.8 1.2 51
2017-09-07 00:00:00 24.8 2 Noroeste 7 Noroeste 0 991.2 1.3 51
2017-09-06 23:00:00 24.4 6 Noroeste 11 Noroeste 0 990.8 1 50
2017-09-06 22:00:00 27.7 7 Noroeste 13 Sudoeste 0 990.6 0.5 38
2017-09-06 21:00:00 31.1 8 Sudoeste 11 Oeste 0 989.9 -0.7 33
2017-09-06 20:00:00 32.8 8 Oeste 12 Oeste 0 989.8 -1.3 33
2017-09-06 19:00:00 35.3 6 Oeste 20 Sudoeste 0 990.1 -1.9 29
2017-09-06 18:00:00 37.4 9 Oeste 18 Noroeste 0 990.6 -2.5 28
2017-09-06 17:00:00 37.8 4 Noroeste 15 Oeste 0 991.1 -2.9 28
2017-09-06 16:00:00 37.2 6 Oeste 17 Oeste 0 992 -3 31
2017-09-06 15:00:00 36 5 Noroeste 15 Noroeste 0 993.1 -2.5 36
2017-09-06 14:00:00 34.7 2 Nordeste 10 Oeste 0 994 -1.9 38
2017-09-06 13:00:00 32.6 3 Sudeste 11 Este 0 995 -1 44
2017-09-06 12:00:00 31 0 Calma 10 Nordeste 0 995.6 -0.5 49
2017-09-06 11:00:00 28.4 3 Sudeste 10 Este 0 995.9 0.3 56
2017-09-06 10:00:00 25.3 5 Este 11 Este 0 996 0.9 63
2017-09-06 09:00:00 20.9 0 Calma 5 Este 0 996.1 1 80
2017-09-06 08:00:00 18.8 2 Este 5 Este 0 995.6 0.5 80
2017-09-06 07:00:00 19.4 0 Calma 4 Este 0 995.1 -0.2 77
2017-09-06 06:00:00 19.8 0 Calma 3 Noroeste 0 995.1 -0.5 77
2017-09-06 05:00:00 20.2 0 Calma 5 Noroeste 0 995.1 -0.3 75
2017-09-06 04:00:00 21.9 4 Noroeste 5 Noroeste 0 995.3 -0.3 69
2017-09-06 03:00:00 21.4 0 Calma 9 Noroeste 0 995.6 0.3 64
2017-09-06 02:00:00 21.9 8 Oeste 12 Oeste 0 995.4 0.6 63
2017-09-06 01:00:00 23.6 4 Noroeste 10 Oeste 0 995.6 1.3 54
2017-09-06 00:00:00 23.9 5 Oeste 6 Oeste 0 995.3 1.8 50
2017-09-05 23:00:00 24.5 0 Calma 8 Noroeste 0 994.8 1.6 49
2017-09-05 22:00:00 26.7 5 Noroeste 14 Sudoeste 0 994.3 1.1 40
2017-09-05 21:00:00 29.2 9 Sudoeste 15 Oeste 0 993.5 0.2 36
2017-09-05 20:00:00 31.3 11 Oeste 18 Oeste 0 993.2 -0.1 34
2017-09-05 19:00:00 34 8 Oeste 22 Oeste 0 993.2 -1.1 30
2017-09-05 18:00:00 36.5 5 Noroeste 15 Oeste 0 993.3 -1.6 27
2017-09-05 17:00:00 35.9 6 Noroeste 17 Oeste 0 993.3 -2.2 28
2017-09-05 16:00:00 36.9 5 Oeste 17 Noroeste 0 994.3 -1.9 29
2017-09-05 15:00:00 35 6 Oeste 20 Sudoeste 0 994.9 -1.5 33
2017-09-05 14:00:00 33.8 2 Noroeste 11 Noroeste 0 995.5 -0.9 35
2017-09-05 13:00:00 32.4 3 Sur 10 Sudeste 0 996.2 0 40
2017-09-05 12:00:00 29.8 3 Este 8 Este 0 996.4 0.7 45
2017-09-05 11:00:00 26.8 4 Este 12 Este 0 996.4 1.3 47
2017-09-05 10:00:00 23.5 2 Este 6 Sudeste 0 996.2 1.7 59
2017-09-05 09:00:00 18.4 0 Calma 0 Calma 0 995.7 1.6 80
2017-09-05 08:00:00 15.3 0 Calma 4 Sur 0 995.1 1.5 80
2017-09-05 07:00:00 15.9 0 Calma 6 Este 0 994.5 1 77
2017-09-05 06:00:00 16.8 2 Sudeste 6 Este 0 994.1 0.6 71
2017-09-05 05:00:00 17.3 0 Calma 5 Este 0 993.6 0.3 68
2017-09-05 04:00:00 18.5 0 Calma 3 Sur 0 993.5 1 60
2017-09-05 03:00:00 19.8 0 Calma 6 Noroeste 0 993.5 1 57
2017-09-05 02:00:00 20.2 7 Noroeste 13 Oeste 0 993.3 1.4 56
2017-09-05 01:00:00 20.4 3 Oeste 8 Oeste 0 992.5 1.2 48
2017-09-05 00:00:00 21.7 0 Calma 6 Oeste 0 992.5 2.2 43
2017-09-04 23:00:00 23.5 3 Oeste 5 Oeste 0 991.9 2.2 39
2017-09-04 22:00:00 25.3 5 Oeste 10 Oeste 0 991.3 2.2 36
2017-09-04 21:00:00 26.4 6 Oeste 14 Noroeste 0 990.3 1.1 35
2017-09-04 20:00:00 30 10 Oeste 23 Oeste 0 989.7 0.2 31
2017-09-04 19:00:00 33.1 12 Sudoeste 27 Sudoeste 0 989.1 -0.6 27
2017-09-04 18:00:00 34 10 Oeste 24 Oeste 0 989.2 -1.1 26
2017-09-04 17:00:00 34.5 11 Sudoeste 28 Oeste 0 989.5 -1.2 26
2017-09-04 16:00:00 33.6 11 Oeste 26 Oeste 0 989.7 -1.5 26
2017-09-04 15:00:00 33 11 Oeste 24 Oeste 0 990.3 -1.1 28
2017-09-04 14:00:00 32.4 9 Oeste 21 Oeste 0 990.7 -0.6 28
2017-09-04 13:00:00 30.3 9 Oeste 21 Sudoeste 0 991.2 -0.1 28
2017-09-04 12:00:00 28.7 8 Oeste 18 Oeste 0 991.4 0.5 34
2017-09-04 11:00:00 25.8 12 Sudoeste 18 Sudoeste 0 991.3 1.1 42
2017-09-04 10:00:00 22.9 8 Oeste 16 Oeste 0 991.3 1.5 69
2017-09-04 09:00:00 18.5 4 Noroeste 8 Oeste 0 990.9 1.2 94
2017-09-04 08:00:00 16.1 0 Calma 8 Oeste 0 990.2 0.3 93
2017-09-04 07:00:00 16.5 5 Noroeste 6 Noroeste 0 989.8 0 92
2017-09-04 06:00:00 18.1 2 Oeste 6 Oeste 0 989.7 0 83
2017-09-04 05:00:00 19 0 Calma 7 Oeste 0 989.9 0.4 81
2017-09-04 04:00:00 20.1 0 Calma 8 Oeste 0 989.8 0.2 75
2017-09-04 03:00:00 20.7 7 Oeste 9 Oeste 0 989.7 0.2 74
2017-09-04 02:00:00 21.2 8 Noroeste 12 Noroeste 0 989.5 -0.1 69
2017-09-04 01:00:00 23.1 6 Noroeste 10 Oeste 0 989.6 0.6 63
2017-09-04 00:00:00 25.8 5 Oeste 16 Oeste 0 989.5 1.1 47
2017-09-03 23:00:00 25.1 7 Noroeste 15 Oeste 0 989.6 1.3 47
2017-09-03 22:00:00 28 10 Sudoeste 15 Sudoeste 0 989 0.5 41
2017-09-03 21:00:00 29.1 8 Sudoeste 19 Sudoeste 0 988.4 -0.3 39
2017-09-03 20:00:00 31.4 10 Sudoeste 20 Sudoeste 0 988.3 -0.7 37
2017-09-03 19:00:00 31.3 9 Oeste 22 Oeste 0 988.5 -1.1 38
2017-09-03 18:00:00 32.8 11 Oeste 22 Oeste 0 988.7 -1.8 36
2017-09-03 17:00:00 33.3 9 Oeste 21 Oeste 0 989 -2.1 35
2017-09-03 16:00:00 34.3 8 Noroeste 22 Noroeste 0 989.6 -2.4 32
2017-09-03 15:00:00 33.8 7 Noroeste 20 Noroeste 0 990.5 -2.1 39
2017-09-03 14:00:00 33 4 Oeste 18 Sudoeste 0 991.1 -2.2 42
2017-09-03 13:00:00 30.9 4 Oeste 15 Sudoeste 0 992 -1.2 48
2017-09-03 12:00:00 29.5 5 Sudoeste 14 Sudoeste 0 992.6 -0.7 54
2017-09-03 11:00:00 25.9 6 Noroeste 13 Noroeste 0 993.3 0.1 68
2017-09-03 10:00:00 23.7 4 Noroeste 7 Noroeste 0 993.2 0.1 76
2017-09-03 09:00:00 21.1 0 Calma 4 Noroeste 0 993.3 0.3 86
2017-09-03 08:00:00 20 0 Calma 7 Sudoeste 0 993.2 0.2 84
2017-09-03 07:00:00 21.4 5 Sudoeste 13 Oeste 0 993.1 0 80
2017-09-03 06:00:00 21.5 8 Oeste 17 Oeste 0 993 -0.4 78
2017-09-03 05:00:00 22.3 11 Oeste 17 Oeste 0 993 -0.6 77
2017-09-03 04:00:00 22.3 9 Oeste 13 Oeste 0 993.1 -0.9 78
2017-09-03 03:00:00 21.2 6 Noroeste 11 Noroeste 0 993.4 -0.3 81
2017-09-03 02:00:00 21.8 5 Oeste 9 Noroeste 0 993.6 0.2 77
2017-09-03 01:00:00 23.2 7 Noroeste 15 Oeste 0 994 1.3 72
2017-09-03 00:00:00 24.4 9 Oeste 14 Oeste 0 993.7 1.9 65
2017-09-02 23:00:00 24.9 9 Oeste 14 Oeste 0 993.4 2.1 63
2017-09-02 22:00:00 26.9 10 Oeste 26 Sudoeste 0 992.7 1.3 52
2017-09-02 21:00:00 29.3 13 Sudoeste 22 Sudoeste 0 991.8 0.2 37
2017-09-02 20:00:00 31.3 7 Oeste 14 Sudoeste 0 991.3 -0.8 30
2017-09-02 19:00:00 33.8 4 Oeste 12 Oeste 0 991.4 -1.5 26
2017-09-02 18:00:00 36.8 3 Oeste 10 Sur 0 991.6 -2.1 23
2017-09-02 17:00:00 36.8 2 Sudeste 13 Sudeste 0 992.1 -2.2 24
2017-09-02 16:00:00 35.8 0 Calma 14 Este 0 992.9 -2 31
2017-09-02 15:00:00 34.2 5 Nordeste 14 Este 0 993.7 -1.9 34
2017-09-02 14:00:00 32.3 7 Este 21 Este 0 994.3 -1.2 39
2017-09-02 13:00:00 31.4 4 Este 17 Sudeste 0 994.9 -0.2 41
2017-09-02 12:00:00 29.9 6 Sudeste 19 Este 0 995.6 1.1 46
2017-09-02 11:00:00 28 4 Este 17 Este 0 995.5 1.5 50
2017-09-02 10:00:00 25.6 2 Sudeste 5 Sudeste 0 995.1 1.7 61
2017-09-02 09:00:00 20.6 0 Calma 5 Sudeste 0 994.5 1.3 88
2017-09-02 08:00:00 18.6 0 Calma 5 Sudoeste 0 994 0.7 91
2017-09-02 07:00:00 18.9 5 Sudoeste 6 Sudoeste 0 993.4 0.4 90
2017-09-02 06:00:00 20.2 5 Oeste 12 Sudoeste 0 993.2 0.3 85
2017-09-02 05:00:00 20.4 3 Oeste 9 Oeste 0 993.3 0.6 84
2017-09-02 04:00:00 20.6 5 Oeste 11 Oeste 0 993 0.8 81
2017-09-02 03:00:00 20.8 6 Oeste 11 Noroeste 0 992.9 1.5 78
2017-09-02 02:00:00 23.6 9 Noroeste 19 Oeste 0 992.7 1.9 64
2017-09-02 01:00:00 24.5 9 Noroeste 21 Oeste 0 992.2 2.3 60
2017-09-02 00:00:00 25.4 11 Oeste 22 Oeste 0 991.4 2.5 57
2017-09-01 23:00:00 26.8 13 Oeste 21 Oeste 0 990.8 2.3 50
2017-09-01 22:00:00 27.9 10 Oeste 15 Sudoeste 0 989.9 1.4 36
2017-09-01 21:00:00 28.8 8 Sudoeste 14 Oeste 0 988.9 0.4 35
2017-09-01 20:00:00 31 8 Oeste 15 Sudoeste 0 988.5 -0.5 32
2017-09-01 19:00:00 33.6 6 Oeste 15 Sudoeste 0 988.5 -1.2 30
2017-09-01 18:00:00 34.4 9 Oeste 19 Sudoeste 0 988.5 -2 27
2017-09-01 17:00:00 35.7 7 Oeste 19 Sudoeste 0 989 -2.4 28
2017-09-01 16:00:00 34.7 8 Oeste 15 Oeste 0 989.7 -2.5 31
2017-09-01 15:00:00 33.8 5 Noroeste 12 Noroeste 0 990.5 -2.2 35
2017-09-01 14:00:00 31.8 6 Oeste 18 Noroeste 0 991.4 -1.3 39
2017-09-01 13:00:00 30.3 5 Noroeste 17 Noroeste 0 992.2 -0.2 43
2017-09-01 12:00:00 29.1 4 Oeste 10 Sudoeste 0 992.7 0.4 48
2017-09-01 11:00:00 26.9 3 Noroeste 6 Noroeste 0 992.7 1.1 54
2017-09-01 10:00:00 23.6 0 Calma 4 Oeste 0 992.4 1.4 70
2017-09-01 09:00:00 19.9 0 Calma 4 Sudeste 0 992.3 1.3 86
2017-09-01 08:00:00 17.5 0 Calma 4 Sudeste 0 991.6 0.6 87
2017-09-01 07:00:00 17.9 0 Calma 4 Sudeste 0 991 0.1 86
2017-09-01 06:00:00 18.4 0 Calma 4 Oeste 0 991 0.2 81
2017-09-01 05:00:00 19 0 Calma 8 Oeste 0 991 0.5 80
2017-09-01 04:00:00 19.4 6 Oeste 10 Oeste 0 990.9 0.5 77
2017-09-01 03:00:00 19.7 8 Oeste 10 Oeste 0 990.8 0.6 70
2017-09-01 02:00:00 22.4 3 Noroeste 15 Sudoeste 0 990.5 0.5 57
2017-09-01 01:00:00 22.2 2 Este 8 Este 0 990.4 0.9 60
2017-09-01 00:00:00 21.7 3 Sudoeste 6 Noroeste 0 990.2 1.2 62
2017-08-31 23:00:00 22.8 0 Calma 8 Oeste 0 990 1.4 53
2017-08-31 22:00:00 24.6 4 Noroeste 9 Sur 0 989.5 1.1 42
2017-08-31 21:00:00 27.5 6 Sudoeste 9 Oeste 0 989 0.5 35
2017-08-31 20:00:00 30 8 Oeste 13 Oeste 0 988.6 -0.3 32
2017-08-31 19:00:00 32.5 5 Oeste 14 Sudoeste 0 988.4 -1.2 29
2017-08-31 18:00:00 34.8 0 Calma 13 Norte 0 988.5 -1.8 25
2017-08-31 17:00:00 34.1 6 Oeste 15 Oeste 0 988.9 -2.1 26
2017-08-31 16:00:00 33.9 5 Sudoeste 12 Sudoeste 0 989.6 -2.2 28
2017-08-31 15:00:00 32.8 0 Calma 15 Este 0 990.3 -2.1 28
2017-08-31 14:00:00 30.7 7 Este 19 Este 0 991 -1.7 34
2017-08-31 13:00:00 29.5 7 Este 17 Este 0 991.8 -0.8 37
2017-08-31 12:00:00 27.5 6 Sudeste 14 Sudeste 0 992.4 0 47
2017-08-31 11:00:00 24.9 2 Sudoeste 5 Oeste 0 992.7 1.2 58
2017-08-31 10:00:00 20.4 0 Calma -- -- 0 992.6 1.3 83
2017-08-31 09:00:00 18.1 0 Calma 5 Oeste 0 992.4 1.3 95
2017-08-31 08:00:00 16.6 0 Calma 5 Sudeste 0 991.5 0.5 94
2017-08-31 07:00:00 17.4 4 Oeste 6 Oeste 0 991.3 0.4 94
2017-08-31 06:00:00 17.4 0 Calma 6 Oeste 0 991.1 -0.2 93
2017-08-31 05:00:00 17.3 0 Calma 4 Noroeste 0 991 -0.2 92
2017-08-31 04:00:00 17.3 0 Calma 10 Noroeste 0 990.9 -0.3 90
2017-08-31 03:00:00 19.1 6 Noroeste 17 Sudoeste 0 991.3 0.1 80
2017-08-31 02:00:00 20.4 8 Sudoeste 13 Sudoeste 0 991.2 0.4 74
2017-08-31 01:00:00 20.1 4 Oeste 11 Oeste 0 991.2 0.9 69
2017-08-31 00:00:00 20.3 5 Oeste 9 Oeste 0 991.2 1.4 68
2017-08-30 23:00:00 22.2 5 Noroeste 14 Sudoeste 0 990.8 1.3 50
2017-08-30 22:00:00 24 8 Sudoeste 13 Sudoeste 0 990.3 0.8 41
2017-08-30 21:00:00 25 6 Oeste 18 Oeste 0 989.8 0.2 40
2017-08-30 20:00:00 27.4 6 Oeste 15 Sudoeste 0 989.5 -0.2 36
2017-08-30 19:00:00 28.2 6 Oeste 23 Oeste 0 989.5 -0.7 35
2017-08-30 18:00:00 29.8 10 Oeste 19 Oeste 0 989.6 -1.3 33
2017-08-30 17:00:00 29.4 6 Noroeste 16 Noroeste 0 989.7 -1.8 33
2017-08-30 16:00:00 28.4 0 Calma 14 Nordeste 0 990.2 -2 36
2017-08-30 15:00:00 29.7 4 Este 18 Este 0 990.9 -1.9 36
2017-08-30 14:00:00 28.8 6 Sudeste 19 Sudeste 0 991.5 -1.3 39
2017-08-30 13:00:00 26.6 5 Este 15 Sudeste 0 992.2 -0.3 45
2017-08-30 12:00:00 24.2 5 Este 15 Este 0 992.8 0.8 55
2017-08-30 11:00:00 22.4 7 Este 15 Sudeste 0 992.8 1.2 69
2017-08-30 10:00:00 19.9 0 Calma 6 Sudeste 0 992.5 1.2 98
2017-08-30 09:00:00 16.7 0 Calma 6 Este 0 992 1 99
2017-08-30 08:00:00 15.9 2 Este 6 Sudeste 0 991.6 0.5 99
2017-08-30 07:00:00 16 0 Calma 3 Sudoeste 0 991.3 0.3 99
2017-08-30 06:00:00 15 0 Calma 5 Oeste 0 991 0 98
2017-08-30 05:00:00 15.7 0 Calma 4 Nordeste 0 991.1 -0.3 98
2017-08-30 04:00:00 16.2 0 Calma 5 Sudeste 0 991 -0.1 97
2017-08-30 03:00:00 17.2 0 Calma 4 Oeste 0 991 0 97
2017-08-30 02:00:00 17.2 0 Calma 6 Sudoeste 0 991.4 0.9 97
2017-08-30 01:00:00 17 2 Sudoeste 8 Oeste 0 991.1 1.3 96
2017-08-30 00:00:00 17.5 0 Calma 19 Sudoeste 0.3 991 2.7 94
2017-08-29 23:00:00 18.3 16 Sudoeste 26 Sudoeste 0.1 990.5 2.6 87
2017-08-29 22:00:00 19.4 12 Sudoeste 31 Sudoeste 0.2 989.8 2.3 80
2017-08-29 21:00:00 23.3 8 Sudoeste 14 Oeste 0 988.3 0.4 48
2017-08-29 20:00:00 24 8 Oeste 18 Oeste 0 987.9 -0.1 44
2017-08-29 19:00:00 25.3 9 Oeste 25 Oeste 0 987.5 -1 42
2017-08-29 18:00:00 26.3 12 Oeste 27 Oeste 0 987.9 -1 44
2017-08-29 17:00:00 27.5 16 Oeste 29 Oeste 0 988 -1.6 42
2017-08-29 16:00:00 25.8 14 Oeste 28 Oeste 0 988.5 -1.5 46
2017-08-29 15:00:00 27.9 14 Oeste 26 Oeste 0 988.9 -1.4 42
2017-08-29 14:00:00 27 8 Oeste 20 Sudoeste 0 989.6 -0.9 47
2017-08-29 13:00:00 25.3 5 Oeste 20 Oeste 0 990 -0.3 50
2017-08-29 12:00:00 24.3 6 Noroeste 14 Noroeste 0 990.3 0.3 54
2017-08-29 11:00:00 24.1 5 Oeste 13 Noroeste 0 990.5 0.4 59
2017-08-29 10:00:00 20.6 3 Noroeste 7 Noroeste 0 990.3 0.3 76
2017-08-29 09:00:00 17.9 0 Calma 4 Este 0 990 0 98
2017-08-29 08:00:00 15.4 0 Calma 5 Sudeste 0 990.1 -0.2 97
2017-08-29 07:00:00 15.9 0 Calma 5 Oeste 0 990 -0.4 96
2017-08-29 06:00:00 16.6 4 Oeste 7 Noroeste 0 990 -0.5 94
2017-08-29 05:00:00 16.9 4 Oeste 12 Sudoeste 0 990.3 -0.7 94
2017-08-29 04:00:00 18 6 Sudoeste 11 Oeste 0 990.4 -0.3 97
2017-08-29 03:00:00 18.7 3 Noroeste 9 Oeste 0 990.5 -0.2 98
2017-08-29 02:00:00 18.9 3 Sudoeste 5 Sudoeste 0 991 0.2 98
2017-08-29 01:00:00 18.7 0 Calma 3 Sur 0 990.7 0.4 97
2017-08-29 00:00:00 19.1 0 Calma 10 Sudeste 0 990.7 0.8 96
2017-08-28 23:00:00 19.8 2 Este 7 Este 0 990.8 0.6 94
2017-08-28 22:00:00 20 6 Este 10 Este 0 990.3 0 91
2017-08-28 21:00:00 20.3 0 Calma 8 Este 0 989.9 -0.2 88
2017-08-28 20:00:00 21.9 2 Este 6 Este 0 990.2 -0.3 77
2017-08-28 19:00:00 21.2 4 Noroeste 10 Oeste 0 990.3 -0.8 80
2017-08-28 18:00:00 22 3 Noroeste 11 Oeste 0 990.1 -1.3 77
2017-08-28 17:00:00 22.1 5 Noroeste 11 Sudoeste 0 990.5 -0.6 81
2017-08-28 16:00:00 19.7 8 Sudoeste 20 Sudoeste 1.5 991.1 -1.7 99
2017-08-28 15:00:00 18.8 9 Oeste 25 Sudoeste 1 991.4 -0.4 99
2017-08-28 14:00:00 19 9 Noroeste 17 Noroeste 3 991.1 0.2 99
2017-08-28 13:00:00 19.4 7 Sudoeste 13 Sudoeste 0.8 992.8 2 97
2017-08-28 12:00:00 20.3 4 Oeste 10 Oeste 0.1 991.8 1.5 91
2017-08-28 11:00:00 22.5 0 Calma 5 Sudeste 0 990.9 1.2 76
2017-08-28 10:00:00 20.5 0 Calma 5 Sur 0 990.8 1.5 90
2017-08-28 09:00:00 18.6 0 Calma 5 Oeste 0 990.3 0.9 99
2017-08-28 08:00:00 17.5 3 Oeste 6 Noroeste 0 989.7 -0.1 98
2017-08-28 07:00:00 17.5 0 Calma 6 Este 0 989.3 -0.5 97
2017-08-28 06:00:00 18.2 3 Sudoeste 5 Este 0 989.4 -0.5 94
2017-08-28 05:00:00 19.2 0 Calma 6 Sudoeste 0 989.8 0.5 89
2017-08-28 04:00:00 20.4 0 Calma 16 Sudoeste 0 989.8 0.5 80
2017-08-28 03:00:00 22 9 Oeste 16 Sudoeste 0 989.9 0.6 76
2017-08-28 02:00:00 20.6 6 Oeste 9 Oeste 0 989.3 0.8 94
2017-08-28 01:00:00 20.4 0 Calma 10 Noroeste 0 989.3 1.3 93
2017-08-28 00:00:00 20.6 8 Oeste 12 Noroeste 0 989.3 1.6 90
2017-08-27 23:00:00 22.8 0 Calma 10 Este 0 988.5 0.7 76
2017-08-27 22:00:00 23.5 4 Sudeste 9 Sur 0 988 -0.1 73
2017-08-27 21:00:00 24.6 4 Sudeste 12 Este 0 987.7 -1.3 68
2017-08-27 20:00:00 25.9 8 Este 18 Sudeste 0 987.8 -2 62
2017-08-27 19:00:00 27 10 Este 23 Este 0 988.1 -1.9 65
2017-08-27 18:00:00 26 10 Este 24 Este 0.1 989 -2 70
2017-08-27 17:00:00 25.9 8 Este 30 Este 0.1 989.8 -2 77
2017-08-27 16:00:00 22.2 17 Este 44 Este 0.9 990 -1.7 86
2017-08-27 15:00:00 20.9 3 Este 25 Sudoeste 2.1 991 -0.3 96
2017-08-27 14:00:00 23.9 2 Este 12 Este 0.4 991.8 1.2 91
2017-08-27 13:00:00 26.6 0 Calma 11 Sur 0 991.7 1.9 70
2017-08-27 12:00:00 27.3 4 Sudeste 8 Sudeste 0 991.3 2.5 70
2017-08-27 11:00:00 25.5 0 Calma 19 Sudoeste 0 990.6 2.6 73
2017-08-27 10:00:00 25.1 5 Noroeste 10 Oeste 0 989.8 2.1 78
2017-08-27 09:00:00 22 8 Noroeste 11 Este 0 988.8 0.5 80
2017-08-27 08:00:00 23.8 2 Este 17 Este 0 988 -0.5 70
2017-08-27 07:00:00 23.5 4 Sudeste 13 Este 0 987.7 -0.9 74
2017-08-27 06:00:00 21.9 2 Sur 9 Noroeste 0 988.3 -0.1 79
2017-08-27 05:00:00 23.9 0 Calma 9 Noroeste 0 988.5 0.2 70
2017-08-27 04:00:00 24.4 0 Calma 8 Noroeste 0 988.6 0.2 64
2017-08-27 03:00:00 25.1 0 Calma 13 Este 0 988.4 -0.7 62
2017-08-27 02:00:00 26.6 12 Este 24 Sudeste 0 988.3 -0.6 57
2017-08-27 01:00:00 27.7 10 Este 27 Este 0 988.4 0.4 48
2017-08-27 00:00:00 29.5 6 Este 23 Este 0 989.1 1.8 43
2017-08-26 23:00:00 31.1 11 Este 23 Este 0 988.9 2 40
2017-08-26 22:00:00 30.1 0 Calma 13 Sudoeste 0 988 1.1 41
2017-08-26 21:00:00 31.8 10 Oeste 21 Oeste 0 987.3 0.5 40
2017-08-26 20:00:00 33.1 13 Oeste 24 Oeste 0 986.9 -0.1 39
2017-08-26 19:00:00 34.2 8 Oeste 21 Oeste 0 986.9 -1 39
2017-08-26 18:00:00 36 6 Oeste 15 Oeste 0 986.8 -1.7 39
2017-08-26 17:00:00 36.5 6 Oeste 15 Sudoeste 0 987 -1.9 38
2017-08-26 16:00:00 36.5 5 Oeste 17 Oeste 0 987.9 -1.7 43
2017-08-26 15:00:00 34.9 11 Oeste 25 Oeste 0 988.5 -1.5 42
2017-08-26 14:00:00 36.6 12 Oeste 23 Oeste 0 988.9 -1.1 42
2017-08-26 13:00:00 34.7 10 Oeste 18 Oeste 0 989.6 -0.4 47
2017-08-26 12:00:00 32.5 5 Noroeste 11 Sudeste 0 990 0.1 47
2017-08-26 11:00:00 29.4 6 Este 10 Este 0 990 0.3 51
2017-08-26 10:00:00 26.4 0 Calma 5 Noroeste 0 990 0.2 59
2017-08-26 09:00:00 21.7 0 Calma 9 Este 0 989.9 1 67
2017-08-26 08:00:00 19.8 0 Calma 6 Sudeste 0 989.7 0.8 67
2017-08-26 07:00:00 19.9 4 Noroeste 6 Noroeste 0 989.8 0.8 69
2017-08-26 06:00:00 20.4 0 Calma 4 Sudoeste 0 988.9 -0.7 63
2017-08-26 05:00:00 21.4 0 Calma 5 Este 0 988.9 -1 61
2017-08-26 04:00:00 22.9 0 Calma 5 Este 0 989 -1.2 57
2017-08-26 03:00:00 23.8 0 Calma 9 Oeste 0 989.6 -0.3 56
2017-08-26 02:00:00 23.4 8 Oeste 9 Oeste 0 989.9 0.5 58
2017-08-26 01:00:00 27.6 0 Calma 10 Sur 0 990.2 1.2 45
2017-08-26 00:00:00 28.6 7 Sudoeste 16 Sudoeste 0 989.9 1.5 43